Time;durP1;ratioP1;P1;durP2;ratioP2;P2;SDS_P1;SDS_P2;PMS_P1;PMS_P2;Temp;Humidity;BMP_temperature;BMP_pressure;BME280_temperature;BME280_humidity;BME280_pressure;Samples;Min_cycle;Max_cycle;Signal;HPM_P1;HPM_P2
2021/09/17 00:01:00;;;;;;;9.60;4.37;;;18.20;99.10;;;;;;4903065;29;20961;-78
2021/09/17 00:03:27;;;;;;;5.17;4.23;;;18.40;98.10;;;;;;4900715;29;20432;-81
2021/09/17 00:05:54;;;;;;;6.00;5.43;;;18.50;97.80;;;;;;4902466;29;20442;-80
2021/09/17 00:08:22;;;;;;;5.23;4.70;;;18.40;97.60;;;;;;4906269;29;20534;-76
2021/09/17 00:10:49;;;;;;;6.17;5.57;;;18.40;97.70;;;;;;4900466;29;20478;-74
2021/09/17 00:13:17;;;;;;;5.10;4.57;;;18.50;97.60;;;;;;4902369;29;20531;-79
2021/09/17 00:15:44;;;;;;;6.03;5.47;;;18.60;97.10;;;;;;4902385;29;20428;-73
2021/09/17 00:18:12;;;;;;;8.60;7.90;;;18.60;97.10;;;;;;4901913;29;20923;-69
2021/09/17 00:20:39;;;;;;;5.20;4.70;;;18.70;97.50;;;;;;4899207;29;20437;-79
2021/09/17 00:23:06;;;;;;;144.53;35.80;;;18.70;97.20;;;;;;4907327;29;20485;-77
2021/09/17 00:25:35;;;;;;;13.93;5.80;;;18.90;97.40;;;;;;4900290;29;20845;-80
2021/09/17 00:28:02;;;;;;;26.83;8.10;;;19.10;96.40;;;;;;4889203;29;20536;-78
2021/09/17 00:30:30;;;;;;;6.10;4.23;;;19.10;96.90;;;;;;4906966;29;20427;-79
2021/09/17 00:32:58;;;;;;;53.47;14.03;;;19.30;96.60;;;;;;4908950;29;20212;-80
2021/09/17 00:35:26;;;;;;;7.93;3.87;;;19.50;96.40;;;;;;4913949;29;20296;-81
2021/09/17 00:37:54;;;;;;;8.87;6.40;;;19.60;94.20;;;;;;4915495;29;20185;-79
2021/09/17 00:40:22;;;;;;;62.03;18.17;;;19.70;94.40;;;;;;4900501;29;20215;-78
2021/09/17 00:42:49;;;;;;;9.17;5.50;;;19.60;94.60;;;;;;4903364;29;20498;-82
2021/09/17 00:45:18;;;;;;;85.87;22.73;;;19.40;94.70;;;;;;4914275;29;20190;-70
2021/09/17 00:47:46;;;;;;;109.57;28.17;;;19.50;93.70;;;;;;4905433;29;20433;-76
2021/09/17 00:50:17;;;;;;;204.87;50.30;;;19.80;93.20;;;;;;4900258;29;20212;-79
2021/09/17 00:52:47;;;;;;;133.97;33.17;;;19.90;93.40;;;;;;4900202;29;20561;-80
2021/09/17 00:55:14;;;;;;;15.17;6.37;;;20.10;93.30;;;;;;4898999;29;20212;-80
2021/09/17 00:57:42;;;;;;;74.87;20.17;;;20.40;92.90;;;;;;4903258;29;20682;-80
2021/09/17 01:00:12;;;;;;;191.80;46.70;;;20.50;92.10;;;;;;4900321;29;20220;-77
2021/09/17 01:02:40;;;;;;;189.60;49.37;;;20.60;92.10;;;;;;4901980;29;20184;-79
2021/09/17 01:05:09;;;;;;;193.37;50.90;;;20.40;91.60;;;;;;4902995;29;20210;-81
2021/09/17 01:07:36;;;;;;;176.77;48.03;;;20.70;92.00;;;;;;4914177;29;20216;-79
2021/09/17 01:10:06;;;;;;;182.63;48.93;;;20.50;91.10;;;;;;4915614;29;20801;-78
2021/09/17 01:12:33;;;;;;;180.07;48.83;;;20.70;90.30;;;;;;4898273;29;20267;-82
2021/09/17 01:15:01;;;;;;;182.33;49.93;;;20.90;90.30;;;;;;4899322;29;20200;-82
2021/09/17 01:17:37;;;;;;;172.60;49.63;;;21.10;90.20;;;;;;4907605;29;20215;-82
2021/09/17 01:20:10;;;;;;;188.40;49.10;;;21.40;88.60;;;;;;4904644;29;20203;-80
2021/09/17 01:22:38;;;;;;;192.20;49.27;;;20.90;88.40;;;;;;4910912;29;20225;-81
2021/09/17 01:25:10;;;;;;;196.87;49.77;;;20.80;88.90;;;;;;4903968;29;20644;-81
2021/09/17 01:27:37;;;;;;;175.93;48.13;;;21.10;89.50;;;;;;4899480;29;20190;-66
2021/09/17 01:30:06;;;;;;;156.30;46.30;;;21.00;88.50;;;;;;4899359;29;20196;-80
2021/09/17 01:32:34;;;;;;;170.30;47.10;;;20.80;87.00;;;;;;4899439;29;20216;-75
2021/09/17 01:35:02;;;;;;;178.13;48.17;;;20.80;87.60;;;;;;4898876;29;20207;-78
2021/09/17 01:37:30;;;;;;;196.40;49.50;;;21.20;91.50;;;;;;4899536;29;20271;-79
2021/09/17 01:39:58;;;;;;;205.53;50.33;;;21.40;89.90;;;;;;4898924;29;20199;-79
2021/09/17 01:42:25;;;;;;;200.60;49.87;;;21.20;87.70;;;;;;4913797;29;20317;-75
2021/09/17 01:44:52;;;;;;;38.10;11.57;;;21.10;92.30;;;;;;4899352;29;20196;-78
2021/09/17 01:47:20;;;;;;;30.23;8.73;;;21.30;94.90;;;;;;4899367;29;20194;-78
2021/09/17 01:49:47;;;;;;;132.87;32.90;;;21.20;95.20;;;;;;4898937;29;20261;-82
2021/09/17 01:52:15;;;;;;;45.27;12.53;;;21.40;95.20;;;;;;4899238;29;20213;-81
2021/09/17 01:54:43;;;;;;;136.27;35.93;;;21.60;95.40;;;;;;4897879;29;20217;-80
2021/09/17 01:57:10;;;;;;;193.23;49.23;;;21.80;94.90;;;;;;4898992;29;20206;-78
2021/09/17 01:59:37;;;;;;;12.53;4.67;;;21.70;95.70;;;;;;4898882;29;20200;-73
2021/09/17 02:02:05;;;;;;;5.87;4.63;;;21.70;95.20;;;;;;4898741;29;20292;-77
2021/09/17 02:04:32;;;;;;;5.37;4.87;;;21.90;95.20;;;;;;4898432;29;20181;-80
2021/09/17 02:07:00;;;;;;;13.67;12.67;;;21.70;95.30;;;;;;4899176;29;20225;-74
2021/09/17 02:09:27;;;;;;;9.63;8.97;;;21.90;95.10;;;;;;4898738;29;20255;-77
2021/09/17 02:11:54;;;;;;;14.90;13.87;;;22.00;95.10;;;;;;4898319;29;20554;-79
2021/09/17 02:14:22;;;;;;;16.30;15.17;;;22.00;95.10;;;;;;4898078;29;20225;-74
2021/09/17 02:16:49;;;;;;;13.17;12.23;;;22.10;94.90;;;;;;4898200;29;20535;-78
2021/09/17 02:19:16;;;;;;;12.20;11.37;;;22.20;94.80;;;;;;4898774;29;20183;-79
2021/09/17 02:21:49;;;;;;;8.47;7.97;;;22.40;95.40;;;;;;4896676;29;20434;-78
2021/09/17 02:24:19;;;;;;;9.40;8.83;;;22.60;94.30;;;;;;4894276;29;20196;-67
2021/09/17 02:26:46;;;;;;;9.37;8.77;;;22.60;94.60;;;;;;4897822;29;20222;-66
2021/09/17 02:29:14;;;;;;;9.60;8.83;;;22.70;94.40;;;;;;4897414;29;20941;-72
2021/09/17 02:31:41;;;;;;;12.70;11.80;;;22.90;94.20;;;;;;4897415;29;20435;-77
2021/09/17 02:34:08;;;;;;;12.17;11.20;;;22.90;94.20;;;;;;4898138;29;20226;-70
2021/09/17 02:36:36;;;;;;;14.97;13.60;;;23.10;94.30;;;;;;4897129;29;20190;-67
2021/09/17 02:39:04;;;;;;;13.13;11.80;;;23.10;94.20;;;;;;4897132;29;20498;-70
2021/09/17 02:41:31;;;;;;;12.50;11.50;;;22.70;94.90;;;;;;4897566;29;20200;-66
2021/09/17 02:43:59;;;;;;;9.87;9.07;;;22.70;94.80;;;;;;4897351;29;20509;-66
2021/09/17 02:46:26;;;;;;;10.83;9.83;;;22.70;94.80;;;;;;4911939;29;20514;-72
2021/09/17 02:48:53;;;;;;;11.80;10.83;;;22.70;94.60;;;;;;4897387;29;20210;-74
2021/09/17 02:51:21;;;;;;;7.33;6.70;;;22.80;94.90;;;;;;4896909;29;20201;-67
2021/09/17 02:53:48;;;;;;;15.93;14.80;;;22.80;95.00;;;;;;4897623;29;20213;-70
2021/09/17 02:56:15;;;;;;;14.53;13.37;;;23.10;94.30;;;;;;4900405;29;20479;-75
2021/09/17 02:58:43;;;;;;;8.83;8.23;;;23.10;94.50;;;;;;4895923;29;20446;-74
2021/09/17 03:01:10;;;;;;;10.67;9.80;;;23.20;94.00;;;;;;4897738;29;20430;-73
2021/09/17 03:03:38;;;;;;;9.57;7.20;;;23.20;94.00;;;;;;4897263;29;20205;-68
2021/09/17 03:06:05;;;;;;;5.27;4.87;;;22.80;94.30;;;;;;4897659;29;20193;-73
2021/09/17 03:08:33;;;;;;;6.43;5.93;;;23.00;94.10;;;;;;4897271;29;20194;-73
2021/09/17 03:11:00;;;;;;;14.73;13.37;;;23.30;93.60;;;;;;4897018;29;20236;-71
2021/09/17 03:13:28;;;;;;;4.90;4.30;;;23.10;93.50;;;;;;4896914;29;20481;-73
2021/09/17 03:15:55;;;;;;;10.33;9.43;;;22.80;93.70;;;;;;4896882;29;20236;-69
2021/09/17 03:18:23;;;;;;;7.93;6.87;;;23.30;93.70;;;;;;4897144;29;20193;-69
2021/09/17 03:20:51;;;;;;;12.73;11.60;;;23.30;93.50;;;;;;4895937;29;20268;-67
2021/09/17 03:23:20;;;;;;;11.23;10.27;;;23.20;93.60;;;;;;4895656;29;20276;-69
2021/09/17 03:25:47;;;;;;;12.07;11.00;;;23.60;93.10;;;;;;4893371;29;20193;-69
2021/09/17 03:28:15;;;;;;;10.80;9.23;;;23.70;92.80;;;;;;4884213;29;20412;-72
2021/09/17 03:30:42;;;;;;;8.40;7.60;;;23.30;93.00;;;;;;4896720;29;20805;-68
2021/09/17 03:33:11;;;;;;;11.40;10.37;;;23.40;93.20;;;;;;4893781;29;20233;-71
2021/09/17 03:35:43;;;;;;;9.07;8.20;;;23.80;92.80;;;;;;4895200;29;20615;-68
2021/09/17 03:38:11;;;;;;;11.13;10.07;;;23.50;92.70;;;;;;4895694;29;20190;-70
2021/09/17 03:40:39;;;;;;;10.80;9.77;;;23.00;93.20;;;;;;4896241;29;20680;-67
2021/09/17 03:43:07;;;;;;;10.47;9.33;;;22.80;93.40;;;;;;4903118;29;20622;-72
2021/09/17 03:45:36;;;;;;;6.13;5.00;;;22.80;93.60;;;;;;4895982;29;20799;-70
2021/09/17 03:48:11;;;;;;;6.60;5.30;;;22.80;93.70;;;;;;4896940;29;20196;-77
2021/09/17 03:50:40;;;;;;;18.37;16.67;;;23.10;93.50;;;;;;4897174;29;20619;-70
2021/09/17 03:53:08;;;;;;;7.83;7.03;;;23.60;93.10;;;;;;4894772;29;20228;-71
2021/09/17 03:55:38;;;;;;;8.80;8.00;;;23.60;92.60;;;;;;4910545;29;20629;-73
2021/09/17 03:58:06;;;;;;;8.33;6.33;;;23.80;92.90;;;;;;4898104;29;20190;-66
2021/09/17 04:00:34;;;;;;;17.23;15.43;;;23.30;92.60;;;;;;4911677;29;20265;-70
2021/09/17 04:03:02;;;;;;;12.50;11.30;;;23.40;93.00;;;;;;4900409;29;20192;-68
2021/09/17 04:05:29;;;;;;;6.83;6.03;;;23.30;92.70;;;;;;4901569;29;20183;-75
2021/09/17 04:07:57;;;;;;;17.60;15.93;;;23.60;92.10;;;;;;4902505;29;20189;-76
2021/09/17 04:10:24;;;;;;;9.97;8.97;;;23.70;91.80;;;;;;4899360;29;20222;-71
2021/09/17 04:12:51;;;;;;;14.87;13.57;;;23.70;91.90;;;;;;4901199;29;20220;-68
2021/09/17 04:15:19;;;;;;;9.30;8.37;;;24.00;91.60;;;;;;4910710;29;20188;-73
2021/09/17 04:17:46;;;;;;;8.37;7.47;;;23.80;91.50;;;;;;4900015;29;20733;-73
2021/09/17 04:20:14;;;;;;;8.40;7.17;;;23.60;91.40;;;;;;4894010;29;20281;-76
2021/09/17 04:22:42;;;;;;;7.70;6.60;;;23.60;91.30;;;;;;4900892;29;20268;-69
2021/09/17 04:25:10;;;;;;;7.20;6.03;;;23.90;91.20;;;;;;4898522;29;20241;-76
2021/09/17 04:27:38;;;;;;;6.70;5.63;;;24.10;90.80;;;;;;4901314;29;20741;-69
2021/09/17 04:30:08;;;;;;;8.37;6.63;;;23.40;91.20;;;;;;4903207;29;20204;-77
2021/09/17 04:32:36;;;;;;;7.53;5.30;;;23.70;91.10;;;;;;4900161;29;20221;-76
2021/09/17 04:35:05;;;;;;;8.87;8.00;;;23.40;91.60;;;;;;4910260;29;20217;-76
2021/09/17 04:37:32;;;;;;;14.03;12.83;;;23.20;91.90;;;;;;4901633;29;20599;-78
2021/09/17 04:39:59;;;;;;;13.80;12.60;;;23.10;92.20;;;;;;4900114;29;20187;-72
2021/09/17 04:42:27;;;;;;;17.00;15.37;;;23.30;92.20;;;;;;4905738;29;20201;-76
2021/09/17 04:44:54;;;;;;;13.50;12.33;;;23.50;91.90;;;;;;4912890;29;20212;-72
2021/09/17 04:47:22;;;;;;;16.07;14.63;;;23.50;92.30;;;;;;4900396;29;20308;-76
2021/09/17 04:49:49;;;;;;;11.63;10.67;;;23.60;92.20;;;;;;4899753;29;20688;-68
2021/09/17 04:52:16;;;;;;;10.63;9.70;;;23.50;91.90;;;;;;4896651;29;20180;-70
2021/09/17 04:54:44;;;;;;;7.57;6.73;;;23.40;91.70;;;;;;4900334;29;20188;-74
2021/09/17 04:57:11;;;;;;;10.20;9.30;;;23.20;92.00;;;;;;4898867;29;20198;-70
2021/09/17 04:59:38;;;;;;;10.67;9.67;;;23.40;92.20;;;;;;4898696;29;20202;-70
2021/09/17 05:02:06;;;;;;;11.30;10.17;;;23.40;92.20;;;;;;4899182;29;20182;-71
2021/09/17 05:04:33;;;;;;;11.97;10.87;;;23.00;92.30;;;;;;4901262;29;20194;-71
2021/09/17 05:07:00;;;;;;;8.20;7.43;;;23.30;92.50;;;;;;4902466;29;20193;-69
2021/09/17 05:09:30;;;;;;;7.70;6.97;;;23.60;92.40;;;;;;4898218;29;20196;-71
2021/09/17 05:11:58;;;;;;;8.70;7.27;;;23.50;92.20;;;;;;4898595;29;20812;-68
2021/09/17 05:14:25;;;;;;;11.47;10.33;;;23.60;91.90;;;;;;4904229;29;20334;-74
2021/09/17 05:16:52;;;;;;;7.17;5.80;;;23.20;92.00;;;;;;4899050;29;20648;-68
2021/09/17 05:19:23;;;;;;;9.23;8.33;;;23.00;92.20;;;;;;4900019;29;20222;-68
2021/09/17 05:21:54;;;;;;;8.07;7.30;;;23.30;92.40;;;;;;4898631;29;20192;-72
2021/09/17 05:24:23;;;;;;;6.63;5.53;;;23.60;92.60;;;;;;4897668;29;20186;-67
2021/09/17 05:26:51;;;;;;;8.90;8.07;;;23.40;92.60;;;;;;4897399;29;20280;-75
2021/09/17 05:29:18;;;;;;;10.20;9.30;;;23.30;93.00;;;;;;4898313;29;20304;-71
2021/09/17 05:31:45;;;;;;;8.90;8.07;;;23.50;92.40;;;;;;4897553;29;20195;-69
2021/09/17 05:34:13;;;;;;;8.50;7.67;;;23.20;92.60;;;;;;4896722;29;20213;-70
2021/09/17 05:36:41;;;;;;;6.27;5.40;;;23.00;93.00;;;;;;4900804;29;20664;-67
2021/09/17 05:39:08;;;;;;;8.13;7.40;;;23.00;92.90;;;;;;4897086;29;20192;-71
2021/09/17 05:41:39;;;;;;;8.07;7.27;;;23.10;93.10;;;;;;4899483;29;20688;-73
2021/09/17 05:44:09;;;;;;;9.63;8.73;;;23.30;92.70;;;;;;4898652;29;20659;-67
2021/09/17 05:46:36;;;;;;;8.73;7.87;;;23.10;92.90;;;;;;4897437;29;20307;-74
2021/09/17 05:49:04;;;;;;;10.13;9.13;;;22.80;93.90;;;;;;4897278;29;20272;-74
2021/09/17 05:51:31;;;;;;;8.60;7.67;;;22.90;94.10;;;;;;4897766;29;20340;-69
2021/09/17 05:53:59;;;;;;;7.63;6.77;;;23.10;93.90;;;;;;4896344;29;20290;-70
2021/09/17 05:56:26;;;;;;;9.40;8.47;;;23.00;94.30;;;;;;4899326;29;20200;-70
2021/09/17 05:58:54;;;;;;;7.53;6.80;;;22.70;94.70;;;;;;4898223;29;20185;-72
2021/09/17 06:01:21;;;;;;;7.20;6.50;;;22.80;94.50;;;;;;4897050;29;20270;-70
2021/09/17 06:03:48;;;;;;;8.23;7.43;;;22.60;94.60;;;;;;4897229;29;20196;-69
2021/09/17 06:06:18;;;;;;;14.27;12.87;;;22.30;94.90;;;;;;4898423;29;20578;-74
2021/09/17 06:08:46;;;;;;;10.30;9.53;;;22.10;95.40;;;;;;4898847;29;20219;-75
2021/09/17 06:11:14;;;;;;;9.47;8.77;;;22.10;95.50;;;;;;4901560;29;20251;-68
2021/09/17 06:13:41;;;;;;;11.30;10.50;;;22.20;95.90;;;;;;4902246;29;20211;-73
2021/09/17 06:16:09;;;;;;;14.00;12.70;;;22.20;95.60;;;;;;4898833;29;20188;-70
2021/09/17 06:18:36;;;;;;;7.27;6.77;;;22.20;95.60;;;;;;4902057;29;20178;-76
2021/09/17 06:21:04;;;;;;;6.60;6.00;;;22.40;95.80;;;;;;4902809;29;20522;-75
2021/09/17 06:23:31;;;;;;;40.37;18.43;;;22.50;95.50;;;;;;4898606;29;20695;-75
2021/09/17 06:25:58;;;;;;;11.87;10.90;;;22.40;96.00;;;;;;4895982;29;20193;-76
2021/09/17 06:28:26;;;;;;;6.03;5.47;;;22.50;95.90;;;;;;4898955;29;20185;-82
2021/09/17 06:30:53;;;;;;;11.13;9.93;;;22.30;95.80;;;;;;4897358;29;20216;-79
2021/09/17 06:33:21;;;;;;;16.53;14.90;;;22.80;95.50;;;;;;4896960;29;20596;-81
2021/09/17 06:35:48;;;;;;;9.17;8.30;;;22.40;95.50;;;;;;4899730;29;20181;-75
2021/09/17 06:38:15;;;;;;;9.17;8.30;;;22.20;96.00;;;;;;4901581;29;20245;-78
2021/09/17 06:40:43;;;;;;;6.73;6.17;;;22.20;96.10;;;;;;4897424;29;20185;-75
2021/09/17 06:43:10;;;;;;;9.17;8.37;;;21.60;97.00;;;;;;4897733;29;20283;-76
2021/09/17 06:45:38;;;;;;;18.53;16.70;;;21.40;97.90;;;;;;4898272;29;20661;-73
2021/09/17 06:48:05;;;;;;;11.27;10.37;;;21.60;97.60;;;;;;4895914;29;20470;-77
2021/09/17 06:50:33;;;;;;;8.90;8.40;;;21.50;97.40;;;;;;4900569;29;20188;-78
2021/09/17 06:53:00;;;;;;;8.40;7.73;;;21.10;97.80;;;;;;4899435;29;20291;-75
2021/09/17 06:55:30;;;;;;;8.43;7.83;;;20.90;98.20;;;;;;4897191;29;20480;-77
2021/09/17 06:58:03;;;;;;;7.53;6.83;;;20.90;98.80;;;;;;4900703;29;20905;-76
2021/09/17 07:00:33;;;;;;;11.80;10.83;;;20.80;99.10;;;;;;4900786;29;20185;-78
2021/09/17 07:03:00;;;;;;;14.73;13.67;;;20.60;99.50;;;;;;4900473;29;20432;-76
2021/09/17 07:05:29;;;;;;;9.63;8.97;;;20.70;99.50;;;;;;4898823;29;20449;-72
2021/09/17 07:08:01;;;;;;;7.10;6.63;;;20.70;99.60;;;;;;4898895;29;20433;-74
2021/09/17 07:10:29;;;;;;;15.03;13.90;;;20.40;99.90;;;;;;4896512;29;20237;-72
2021/09/17 07:12:56;;;;;;;14.87;13.53;;;19.90;99.90;;;;;;4899277;29;20206;-74
2021/09/17 07:15:24;;;;;;;16.10;14.73;;;20.00;99.90;;;;;;4901705;29;20946;-77
2021/09/17 07:17:52;;;;;;;13.33;12.33;;;19.80;99.90;;;;;;4895842;29;20430;-69
2021/09/17 07:20:20;;;;;;;14.33;13.07;;;19.60;99.90;;;;;;4895893;29;20458;-77
2021/09/17 07:22:47;;;;;;;15.80;14.30;;;19.10;99.90;;;;;;4896349;29;20519;-78
2021/09/17 07:25:15;;;;;;;8.57;7.80;;;18.90;99.90;;;;;;4894937;29;20446;-69
2021/09/17 07:27:43;;;;;;;20.73;18.70;;;18.80;99.90;;;;;;4895908;29;20535;-68
2021/09/17 07:30:11;;;;;;;7.27;6.33;;;18.60;99.90;;;;;;4896453;29;20463;-76
2021/09/17 07:32:38;;;;;;;8.77;7.93;;;18.60;99.90;;;;;;4896881;29;20518;-67
2021/09/17 07:35:06;;;;;;;6.47;5.80;;;18.50;99.90;;;;;;4904999;29;20444;-74
2021/09/17 07:37:34;;;;;;;14.03;10.33;;;18.40;99.90;;;;;;4901253;29;20461;-75
2021/09/17 07:40:02;;;;;;;23.20;20.33;;;18.40;99.90;;;;;;4900796;29;20767;-74
2021/09/17 07:42:29;;;;;;;11.23;10.13;;;18.30;99.90;;;;;;4897487;29;20481;-76
2021/09/17 07:44:56;;;;;;;21.17;19.03;;;18.20;99.90;;;;;;4900052;29;20522;-68
2021/09/17 07:47:24;;;;;;;14.97;13.63;;;18.10;99.90;;;;;;4911777;29;20829;-70
2021/09/17 07:49:51;;;;;;;19.60;17.87;;;18.10;99.90;;;;;;4900628;29;20458;-75
2021/09/17 07:52:19;;;;;;;14.97;13.63;;;18.00;99.90;;;;;;4902391;29;20459;-74
2021/09/17 07:54:46;;;;;;;11.43;10.43;;;17.90;99.90;;;;;;4906494;29;21167;-73
2021/09/17 07:57:50;;;;;;;10.90;9.47;;;17.90;99.90;;;;;;4904459;29;20415;-76
2021/09/17 08:00:18;;;;;;;17.90;16.03;;;17.90;99.90;;;;;;4893183;29;20576;-67
2021/09/17 08:02:46;;;;;;;6.87;6.23;;;17.90;99.90;;;;;;4900550;29;20416;-72
2021/09/17 08:05:14;;;;;;;7.17;6.47;;;17.80;99.90;;;;;;4900230;29;20938;-70
2021/09/17 08:07:42;;;;;;;13.00;11.77;;;17.80;99.90;;;;;;4899963;29;20785;-75
2021/09/17 08:10:10;;;;;;;7.90;7.13;;;17.70;99.90;;;;;;4899800;29;20489;-66
2021/09/17 08:12:38;;;;;;;10.80;9.80;;;17.70;99.90;;;;;;4899039;29;20432;-73
2021/09/17 08:15:07;;;;;;;12.63;11.57;;;17.70;99.90;;;;;;4901004;29;20463;-72
2021/09/17 08:17:34;;;;;;;7.07;6.13;;;17.60;99.90;;;;;;4903800;29;20430;-73
2021/09/17 08:20:02;;;;;;;10.57;9.50;;;17.70;99.90;;;;;;4911427;29;20858;-73
2021/09/17 08:22:29;;;;;;;17.30;15.90;;;17.60;99.90;;;;;;4900648;29;20568;-71
2021/09/17 08:24:56;;;;;;;11.83;10.77;;;17.50;99.90;;;;;;4901195;29;20497;-74
2021/09/17 08:27:23;;;;;;;11.60;10.53;;;17.50;99.90;;;;;;4915476;29;20482;-77
2021/09/17 08:29:51;;;;;;;14.27;12.93;;;17.50;99.90;;;;;;4900832;29;20504;-76
2021/09/17 08:32:18;;;;;;;14.23;12.83;;;17.50;99.90;;;;;;4900383;29;20419;-75
2021/09/17 08:34:46;;;;;;;17.33;15.80;;;17.50;99.90;;;;;;4901458;29;20481;-79
2021/09/17 08:37:13;;;;;;;12.30;11.13;;;17.40;99.90;;;;;;4900533;29;20435;-73
2021/09/17 08:39:40;;;;;;;11.67;10.57;;;17.40;99.90;;;;;;4908629;29;20475;-77
2021/09/17 08:42:09;;;;;;;8.43;7.60;;;17.40;99.90;;;;;;4899793;29;20485;-73
2021/09/17 08:44:36;;;;;;;14.37;11.43;;;17.40;99.90;;;;;;4901539;29;20435;-78
2021/09/17 08:47:06;;;;;;;11.27;10.13;;;17.40;99.90;;;;;;4902804;29;20924;-77
2021/09/17 08:49:39;;;;;;;9.77;8.63;;;17.40;99.90;;;;;;4901730;29;20815;-75
2021/09/17 08:52:06;;;;;;;12.73;9.57;;;17.30;99.90;;;;;;4909730;29;20842;-77
2021/09/17 08:54:34;;;;;;;7.57;5.77;;;17.40;99.90;;;;;;4900294;29;20567;-75
2021/09/17 08:57:01;;;;;;;7.73;6.70;;;17.30;99.90;;;;;;4899851;29;20420;-76
2021/09/17 08:59:28;;;;;;;12.60;11.30;;;17.30;99.90;;;;;;4899942;29;20770;-79
2021/09/17 09:01:56;;;;;;;7.90;7.07;;;17.30;99.90;;;;;;4899630;29;20846;-69
2021/09/17 09:04:41;;;;;;;7.10;6.17;;;17.30;99.90;;;;;;4916765;29;20446;-76
2021/09/17 09:07:08;;;;;;;8.43;7.73;;;17.30;99.90;;;;;;4917825;29;20438;-79
2021/09/17 09:09:35;;;;;;;5.30;4.47;;;17.30;99.90;;;;;;4911560;29;20450;-78
2021/09/17 09:12:06;;;;;;;7.10;6.43;;;17.30;99.90;;;;;;4905804;29;20490;-80
2021/09/17 09:14:33;;;;;;;5.33;4.67;;;17.20;99.90;;;;;;4899648;29;20507;-78
2021/09/17 09:17:04;;;;;;;6.53;5.93;;;17.30;99.90;;;;;;4899388;29;20432;-77
2021/09/17 09:19:37;;;;;;;5.63;4.97;;;17.20;99.90;;;;;;4903434;29;20967;-77
2021/09/17 09:22:08;;;;;;;8.33;7.50;;;17.30;99.90;;;;;;4912563;29;20447;-77
2021/09/17 09:24:42;;;;;;;6.47;5.73;;;17.20;99.90;;;;;;4903280;29;20439;-77
2021/09/17 09:27:18;;;;;;;6.27;5.47;;;17.20;99.90;;;;;;4896297;29;20814;-77
2021/09/17 09:29:54;;;;;;;9.80;8.97;;;17.20;99.90;;;;;;4899334;29;20420;-77
2021/09/17 09:32:32;;;;;;;10.93;10.07;;;17.20;99.90;;;;;;4898612;29;20428;-78
2021/09/17 09:35:02;;;;;;;11.23;9.33;;;17.20;99.90;;;;;;4906951;29;20432;-78
2021/09/17 09:37:37;;;;;;;10.90;10.03;;;17.20;99.90;;;;;;4901834;29;20452;-76
2021/09/17 09:40:08;;;;;;;6.73;6.07;;;17.20;99.90;;;;;;4898216;29;20526;-75
2021/09/17 09:42:59;;;;;;;8.07;7.20;;;17.20;99.90;;;;;;4918960;29;20760;-77
2021/09/17 09:45:26;;;;;;;11.50;10.57;;;17.20;99.90;;;;;;4898200;29;20439;-75
2021/09/17 09:47:55;;;;;;;9.20;8.50;;;17.20;99.90;;;;;;4898767;29;20489;-76
2021/09/17 09:50:30;;;;;;;5.77;4.87;;;17.20;99.90;;;;;;4903738;29;20498;-77
2021/09/17 09:53:01;;;;;;;5.87;4.80;;;17.20;99.90;;;;;;4903365;29;20461;-74
2021/09/17 09:55:29;;;;;;;6.57;5.93;;;17.20;99.90;;;;;;4898313;29;20800;-75
2021/09/17 09:57:59;;;;;;;9.57;8.67;;;17.20;99.90;;;;;;4898159;29;20435;-73
2021/09/17 10:00:27;;;;;;;8.40;7.63;;;17.10;99.90;;;;;;4898601;29;20495;-70
2021/09/17 10:02:56;;;;;;;5.50;4.90;;;17.10;99.90;;;;;;4898690;29;20463;-69
2021/09/17 10:05:27;;;;;;;6.57;5.93;;;17.10;99.90;;;;;;4898693;29;20439;-69
2021/09/17 10:07:55;;;;;;;6.67;6.07;;;17.10;99.90;;;;;;4899009;29;20477;-67
2021/09/17 10:10:23;;;;;;;5.40;4.77;;;17.10;99.90;;;;;;4896866;29;20464;-73
2021/09/17 10:12:50;;;;;;;5.23;4.43;;;17.10;99.90;;;;;;4902733;29;20606;-70
2021/09/17 10:15:19;;;;;;;10.10;8.77;;;17.10;99.90;;;;;;4898468;29;20467;-69
2021/09/17 10:17:53;;;;;;;9.40;8.53;;;17.10;99.90;;;;;;4900229;29;20526;-76
2021/09/17 10:20:21;;;;;;;6.10;5.17;;;17.10;99.90;;;;;;4911674;29;20436;-73
2021/09/17 10:22:50;;;;;;;6.57;5.50;;;17.10;99.90;;;;;;4898666;29;20518;-70
2021/09/17 10:25:20;;;;;;;7.10;6.43;;;17.10;99.90;;;;;;4897358;29;20432;-70
2021/09/17 10:28:08;;;;;;;8.83;8.07;;;17.10;99.90;;;;;;4906730;29;20430;-71
2021/09/17 10:30:40;;;;;;;5.80;4.83;;;17.10;99.90;;;;;;4898418;29;20459;-74
2021/09/17 10:33:29;;;;;;;7.13;6.00;;;17.10;99.90;;;;;;4903465;29;20471;-68
2021/09/17 10:35:57;;;;;;;6.27;5.13;;;17.10;99.90;;;;;;4899989;29;20888;-71
2021/09/17 10:38:29;;;;;;;12.70;11.57;;;17.00;99.90;;;;;;4907758;29;20936;-71
2021/09/17 10:40:56;;;;;;;16.37;13.77;;;17.00;99.90;;;;;;4900873;29;20449;-73
2021/09/17 10:43:35;;;;;;;6.17;5.37;;;17.00;99.90;;;;;;4897695;29;20438;-71
2021/09/17 10:46:04;;;;;;;10.67;8.47;;;17.00;99.90;;;;;;4896702;29;20834;-66
2021/09/17 10:48:48;;;;;;;6.07;5.07;;;17.00;99.90;;;;;;4898998;29;20437;-74
2021/09/17 10:51:39;;;;;;;6.23;5.47;;;17.00;99.90;;;;;;4902596;29;20439;-70
2021/09/17 10:54:11;;;;;;;6.83;5.37;;;16.90;99.90;;;;;;4897282;29;20515;-74
2021/09/17 10:56:51;;;;;;;6.67;6.00;;;16.90;99.90;;;;;;4899656;29;20433;-69
2021/09/17 10:59:28;;;;;;;5.37;4.33;;;16.90;99.90;;;;;;4909022;29;20523;-69
2021/09/17 11:02:00;;;;;;;11.30;10.00;;;16.90;99.90;;;;;;4900301;29;21125;-72
2021/09/17 11:04:33;;;;;;;14.33;11.57;;;16.90;99.90;;;;;;4897687;29;20510;-69
2021/09/17 11:07:29;;;;;;;9.70;8.63;;;16.90;99.90;;;;;;4898864;29;20750;-75
2021/09/17 11:09:59;;;;;;;13.63;12.47;;;16.90;99.90;;;;;;4897651;29;20430;-71
2021/09/17 11:12:31;;;;;;;14.40;12.97;;;16.90;99.90;;;;;;4899038;29;20473;-77
2021/09/17 11:15:12;;;;;;;10.20;9.33;;;16.90;99.90;;;;;;4902500;29;20437;-76
2021/09/17 11:17:53;;;;;;;5.87;4.77;;;16.90;99.90;;;;;;4884595;29;20415;-77
2021/09/17 11:20:23;;;;;;;7.30;6.50;;;16.90;99.90;;;;;;4897702;29;20933;-76
2021/09/17 11:23:02;;;;;;;10.40;9.30;;;16.90;99.90;;;;;;4903789;29;20473;-77
2021/09/17 11:25:34;;;;;;;8.77;7.97;;;17.00;99.90;;;;;;4898091;29;20427;-77
2021/09/17 11:28:04;;;;;;;5.90;4.80;;;16.90;99.90;;;;;;4895761;29;20440;-76
2021/09/17 11:30:34;;;;;;;6.47;5.80;;;16.90;99.90;;;;;;4897651;29;20908;-76
2021/09/17 11:33:15;;;;;;;5.60;4.37;;;17.00;99.90;;;;;;4905898;29;20860;-75
2021/09/17 11:35:42;;;;;;;7.40;6.70;;;17.00;99.90;;;;;;4896573;29;20769;-75
2021/09/17 11:38:10;;;;;;;6.87;6.20;;;17.00;99.90;;;;;;4906143;29;20429;-77
2021/09/17 11:40:48;;;;;;;10.53;9.53;;;17.00;99.90;;;;;;4907114;29;20494;-78
2021/09/17 11:43:16;;;;;;;7.10;6.23;;;17.00;99.90;;;;;;4898681;29;20993;-78
2021/09/17 11:45:51;;;;;;;10.23;9.37;;;17.00;99.90;;;;;;4903193;29;20946;-78
2021/09/17 11:48:25;;;;;;;7.83;7.07;;;17.00;99.90;;;;;;4905024;29;20469;-77
2021/09/17 11:50:55;;;;;;;9.43;8.50;;;17.00;99.90;;;;;;4898415;29;20432;-77
2021/09/17 11:53:23;;;;;;;13.20;12.13;;;17.00;99.90;;;;;;4897564;29;20580;-76
2021/09/17 11:55:50;;;;;;;15.73;14.37;;;17.00;99.90;;;;;;4895930;29;20432;-80
2021/09/17 11:58:18;;;;;;;7.00;6.33;;;16.90;99.90;;;;;;4897330;29;20439;-76
2021/09/17 12:00:46;;;;;;;11.17;10.13;;;17.00;99.90;;;;;;4896484;29;20937;-77
2021/09/17 12:03:13;;;;;;;6.60;6.03;;;16.90;99.90;;;;;;4897093;29;20441;-77
2021/09/17 12:05:43;;;;;;;7.57;6.67;;;17.00;99.90;;;;;;4907648;29;20942;-77
2021/09/17 12:08:11;;;;;;;8.13;7.40;;;17.00;99.90;;;;;;4898260;29;20431;-77
2021/09/17 12:10:44;;;;;;;9.10;8.20;;;16.90;99.90;;;;;;4895740;29;20484;-77
2021/09/17 12:13:13;;;;;;;6.73;5.73;;;16.90;99.90;;;;;;4896603;29;20461;-78
2021/09/17 12:15:43;;;;;;;6.23;5.67;;;16.90;99.90;;;;;;4904189;29;20539;-73
2021/09/17 12:18:18;;;;;;;5.73;5.17;;;16.90;99.90;;;;;;4896626;29;20420;-74
2021/09/17 12:20:49;;;;;;;6.23;5.63;;;16.90;99.90;;;;;;4900189;29;20447;-74
2021/09/17 12:23:22;;;;;;;6.57;5.73;;;16.90;99.90;;;;;;4909903;29;20433;-76
2021/09/17 12:25:50;;;;;;;7.57;6.97;;;16.90;99.90;;;;;;4899060;29;20436;-77
2021/09/17 12:28:22;;;;;;;8.30;7.47;;;16.90;99.90;;;;;;4900402;29;20450;-78
2021/09/17 12:30:51;;;;;;;11.27;10.13;;;16.90;99.90;;;;;;4906058;29;20450;-69
2021/09/17 12:33:24;;;;;;;7.83;7.07;;;16.90;99.90;;;;;;4900446;29;20465;-78
2021/09/17 12:35:56;;;;;;;7.77;7.00;;;16.90;99.90;;;;;;4900008;29;20440;-74
2021/09/17 12:38:25;;;;;;;6.20;5.20;;;16.90;99.90;;;;;;4900171;29;20434;-72
2021/09/17 12:40:56;;;;;;;6.73;6.00;;;16.90;99.90;;;;;;4901502;29;20514;-69
2021/09/17 12:43:29;;;;;;;5.73;4.47;;;16.90;99.90;;;;;;4902594;29;20434;-76
2021/09/17 12:46:00;;;;;;;7.90;7.13;;;17.00;99.90;;;;;;4896356;29;20541;-71
2021/09/17 12:48:31;;;;;;;6.53;5.73;;;17.10;99.90;;;;;;4898907;29;20933;-76